logo
Search for airport 
image banner adimage banner adimage banner ad
image banner ad

FA0275 - Village Helistop

Located in Sun City, South Africa

ICAO - , IATA -

Data provided by Airmate  

General information

Coordinates: S25°21'7" E27°6'27"
Elevation is feet MSL.
Magnetic variation is -18° East
View others Airports in North-West

Operational data

Special qualification required
Current time UTC:
Current local time:
Weather at : - ( 0 km )
METAR: ZMUB 151000Z 22004MPS 190V260 CAVOK 15/M06 Q1015 NOSIG RMK QFE654.0 23
View NOTAMs / SUP AIP / TFR affecting this airport [VIEW]
Communications frequencies: [VIEW]

Runways:

Airport contact information

Address: Sun City South Africa

Satellite view of FA0275